createdAt,value
2018-12-22T00:01:24.978Z,8.80
2018-12-22T00:03:52.426Z,8.80
2018-12-22T00:06:19.871Z,8.70
2018-12-22T00:08:47.318Z,8.70
2018-12-22T00:13:42.253Z,8.60
2018-12-22T00:16:09.832Z,8.60
2018-12-22T00:18:37.285Z,8.60
2018-12-22T00:21:04.729Z,8.60
2018-12-22T00:23:32.194Z,8.60
2018-12-22T00:25:59.690Z,8.50
2018-12-22T00:28:27.129Z,8.60
2018-12-22T00:30:54.568Z,8.60
2018-12-22T00:33:22.031Z,8.60
2018-12-22T00:35:49.534Z,8.60
2018-12-22T00:40:44.492Z,8.70
2018-12-22T00:43:11.967Z,8.70
2018-12-22T00:45:39.533Z,8.70
2018-12-22T00:48:07.027Z,8.80
2018-12-22T00:53:01.962Z,8.80
2018-12-22T00:55:29.420Z,8.80
2018-12-22T01:00:24.342Z,8.80
2018-12-22T01:02:51.780Z,8.80
2018-12-22T01:05:19.272Z,8.80
2018-12-22T01:07:46.741Z,8.80
2018-12-22T01:10:14.252Z,8.80
2018-12-22T01:12:41.706Z,8.80
2018-12-22T01:15:09.185Z,8.80
2018-12-22T01:20:06.781Z,8.80
2018-12-22T01:22:34.227Z,8.80
2018-12-22T01:25:01.737Z,8.80
2018-12-22T01:29:56.743Z,8.70
2018-12-22T01:32:24.202Z,8.70
2018-12-22T01:37:19.102Z,8.60
2018-12-22T01:39:46.558Z,8.60
2018-12-22T01:42:14.040Z,8.60
2018-12-22T01:44:41.505Z,8.60
2018-12-22T01:49:36.426Z,8.60
2018-12-22T01:52:03.930Z,8.60
2018-12-22T01:56:58.856Z,8.70
2018-12-22T01:59:26.344Z,8.80
2018-12-22T02:01:53.803Z,8.80
2018-12-22T02:04:21.255Z,8.90
2018-12-22T02:06:48.696Z,8.90
2018-12-22T02:14:11.492Z,9.00
2018-12-22T02:16:38.975Z,9.00
2018-12-22T02:21:34.074Z,9.10
2018-12-22T02:24:01.548Z,9.10
2018-12-22T02:26:29.102Z,9.00
2018-12-22T02:28:57.042Z,9.10
2018-12-22T02:38:47.260Z,8.90
2018-12-22T02:41:14.802Z,8.90
2018-12-22T02:43:42.298Z,8.90
2018-12-22T02:46:09.786Z,8.90
2018-12-22T02:48:37.228Z,8.90
2018-12-22T02:53:32.278Z,8.90
2018-12-22T02:55:59.853Z,9.00
2018-12-22T03:00:54.851Z,9.00
2018-12-22T03:03:22.456Z,9.10
2018-12-22T03:05:49.913Z,9.10
2018-12-22T03:13:12.532Z,9.20
2018-12-22T03:15:40.161Z,9.20
2018-12-22T03:18:07.720Z,9.30
2018-12-22T03:20:35.162Z,9.30
2018-12-22T03:25:30.275Z,9.20
2018-12-22T03:30:25.339Z,9.10
2018-12-22T03:32:52.785Z,9.10
2018-12-22T03:35:20.255Z,9.10
2018-12-22T03:37:47.848Z,9.20
2018-12-22T03:47:37.757Z,9.20
2018-12-22T03:50:05.339Z,9.20
2018-12-22T03:55:00.366Z,9.30
2018-12-22T03:57:27.927Z,9.20
2018-12-22T04:02:22.996Z,9.20
2018-12-22T04:04:50.431Z,9.20
2018-12-22T04:07:17.931Z,9.10
2018-12-22T04:17:08.094Z,9.10
2018-12-22T04:19:35.808Z,9.10
2018-12-22T04:26:58.248Z,9.10
2018-12-22T04:31:55.591Z,9.10
2018-12-22T04:34:23.042Z,9.10
2018-12-22T04:36:50.514Z,9.10
2018-12-22T04:39:17.943Z,9.30
2018-12-22T04:41:45.523Z,9.30
2018-12-22T04:49:07.945Z,9.20
2018-12-22T04:51:35.492Z,9.30
2018-12-22T04:56:30.492Z,9.30
2018-12-22T04:58:57.954Z,9.30
2018-12-22T05:01:25.413Z,9.40
2018-12-22T05:03:52.847Z,9.40
2018-12-22T05:06:20.336Z,9.40
2018-12-22T05:08:47.780Z,9.40
2018-12-22T05:11:15.224Z,9.40
2018-12-22T05:13:42.658Z,9.40
2018-12-22T05:21:05.055Z,9.50
2018-12-22T05:23:32.889Z,9.60
2018-12-22T05:26:00.333Z,9.60
2018-12-22T05:28:27.769Z,9.60
2018-12-22T05:33:23.256Z,9.60
2018-12-22T05:35:50.786Z,9.50
2018-12-22T05:38:18.250Z,9.50
2018-12-22T05:40:45.683Z,9.50
2018-12-22T05:43:13.125Z,9.50
2018-12-22T05:48:08.053Z,9.40
2018-12-22T05:50:35.502Z,9.40
2018-12-22T05:55:30.461Z,9.50
2018-12-22T05:57:57.915Z,9.60
2018-12-22T06:00:25.359Z,9.60
2018-12-22T06:02:52.820Z,9.60
2018-12-22T06:05:20.428Z,9.60
2018-12-22T06:07:48.108Z,9.70
2018-12-22T06:10:15.664Z,9.70
2018-12-22T06:12:43.095Z,9.70
2018-12-22T06:17:38.020Z,9.60
2018-12-22T06:20:08.036Z,9.70
2018-12-22T06:22:35.523Z,9.60
2018-12-22T06:25:03.301Z,9.60
2018-12-22T06:29:58.245Z,9.50
2018-12-22T06:32:25.871Z,9.40
2018-12-22T06:34:53.307Z,9.40
2018-12-22T06:37:20.819Z,9.40
2018-12-22T06:39:48.342Z,9.40
2018-12-22T06:42:15.800Z,9.30
2018-12-22T06:44:43.301Z,9.30
2018-12-22T06:47:10.929Z,9.20
2018-12-22T06:52:05.936Z,9.10
2018-12-22T06:54:33.519Z,9.10
2018-12-22T06:59:28.623Z,9.00
2018-12-22T07:01:56.090Z,9.00
2018-12-22T07:04:23.635Z,9.00
2018-12-22T07:06:51.100Z,9.00
2018-12-22T07:09:18.540Z,8.90
2018-12-22T07:11:46.025Z,8.90
2018-12-22T07:16:41.000Z,8.80
2018-12-22T07:21:36.244Z,8.70
2018-12-22T07:24:03.863Z,8.70
2018-12-22T07:28:58.791Z,8.70
2018-12-22T07:31:26.389Z,8.60
2018-12-22T07:33:53.893Z,8.60
2018-12-22T07:36:21.349Z,8.60
2018-12-22T07:38:48.862Z,8.60
2018-12-22T07:41:16.329Z,8.60
2018-12-22T07:43:43.770Z,8.60
2018-12-22T07:48:38.683Z,8.60
2018-12-22T07:51:06.226Z,8.60
2018-12-22T07:53:33.674Z,8.60
2018-12-22T07:56:01.143Z,8.60
2018-12-22T07:58:28.609Z,8.60
2018-12-22T08:00:56.188Z,8.70
2018-12-22T08:05:51.300Z,8.60
2018-12-22T08:08:18.804Z,8.60
2018-12-22T08:13:13.988Z,8.60
2018-12-22T08:15:43.042Z,8.60
2018-12-22T08:23:05.910Z,8.70
2018-12-22T08:28:01.133Z,8.60
2018-12-22T08:32:56.145Z,8.60
2018-12-22T08:35:23.740Z,8.60
2018-12-22T08:37:51.497Z,8.60
2018-12-22T08:40:19.220Z,8.60
2018-12-22T08:42:46.699Z,8.60
2018-12-22T08:47:41.599Z,8.60
2018-12-22T08:57:33.006Z,8.50
2018-12-22T09:00:00.485Z,8.50
2018-12-22T09:04:55.495Z,8.60
2018-12-22T09:09:50.435Z,8.60
2018-12-22T09:12:18.001Z,8.60
2018-12-22T09:14:45.513Z,8.60
2018-12-22T09:17:12.988Z,8.60
2018-12-22T09:22:08.083Z,8.60
2018-12-22T09:24:35.524Z,8.50
2018-12-22T09:27:03.068Z,8.50
2018-12-22T09:29:30.576Z,8.50
2018-12-22T09:31:58.218Z,8.50
2018-12-22T09:34:25.755Z,8.50
2018-12-22T09:36:53.345Z,8.50
2018-12-22T09:39:20.855Z,8.50
2018-12-22T09:41:48.412Z,8.50
2018-12-22T09:44:15.852Z,8.50
2018-12-22T09:46:43.313Z,8.60
2018-12-22T09:51:38.348Z,8.60
2018-12-22T09:54:05.927Z,8.70
2018-12-22T09:56:33.561Z,8.90
2018-12-22T09:59:01.081Z,9.10
2018-12-22T10:01:28.614Z,9.20
2018-12-22T10:03:56.131Z,9.30
2018-12-22T10:06:23.779Z,9.40
2018-12-22T10:08:51.336Z,9.50
2018-12-22T10:11:18.953Z,9.60
2018-12-22T10:13:46.551Z,9.60
2018-12-22T10:16:14.057Z,9.60
2018-12-22T10:18:41.565Z,9.60
2018-12-22T10:21:09.012Z,9.70
2018-12-22T10:23:36.493Z,9.70
2018-12-22T10:26:04.031Z,9.70
2018-12-22T10:30:58.970Z,9.70
2018-12-22T10:33:26.516Z,9.60
2018-12-22T10:35:54.008Z,9.60
2018-12-22T10:38:21.476Z,9.60
2018-12-22T10:40:49.004Z,9.60
2018-12-22T10:43:16.444Z,9.60
2018-12-22T10:45:43.883Z,9.50
2018-12-22T10:48:11.513Z,9.40
2018-12-22T10:50:38.939Z,9.40
2018-12-22T11:00:29.148Z,9.00
2018-12-22T11:02:56.687Z,8.90
2018-12-22T11:05:24.232Z,8.80
2018-12-22T11:07:51.801Z,8.70
2018-12-22T11:10:19.335Z,8.60
2018-12-22T11:12:46.971Z,8.60
2018-12-22T11:15:15.480Z,8.60
2018-12-22T11:17:43.273Z,8.70
2018-12-22T11:22:38.241Z,8.80
2018-12-22T11:25:11.314Z,8.80
2018-12-22T11:30:15.463Z,8.90
2018-12-22T11:32:42.974Z,9.00
2018-12-22T11:35:10.469Z,9.10
2018-12-22T11:37:38.119Z,9.20
2018-12-22T11:40:08.245Z,9.30
2018-12-22T11:42:35.879Z,9.40
2018-12-22T11:47:36.634Z,9.50
2018-12-22T11:50:10.629Z,9.60
2018-12-22T11:52:39.511Z,9.50
2018-12-22T12:00:03.233Z,9.40
2018-12-22T12:02:30.884Z,9.40
2018-12-22T12:07:26.035Z,9.30
2018-12-22T12:09:53.591Z,9.40
2018-12-22T12:12:21.113Z,9.40
2018-12-22T12:17:18.345Z,9.50
2018-12-22T12:19:45.827Z,9.60
2018-12-22T12:24:40.818Z,9.70
2018-12-22T12:27:08.250Z,9.80
2018-12-22T12:29:35.844Z,9.80
2018-12-22T12:32:03.317Z,9.90
2018-12-22T12:34:30.957Z,10.00
2018-12-22T12:36:58.418Z,10.10
2018-12-22T12:39:25.920Z,10.20
2018-12-22T12:41:53.418Z,10.30
2018-12-22T12:44:20.962Z,10.30
2018-12-22T12:49:16.052Z,10.20
2018-12-22T12:51:43.663Z,10.20
2018-12-22T12:56:38.857Z,9.90
2018-12-22T12:59:06.317Z,9.90
2018-12-22T13:01:34.049Z,9.80
2018-12-22T13:04:01.583Z,9.80
2018-12-22T13:06:29.068Z,9.80
2018-12-22T13:08:56.544Z,9.80
2018-12-22T13:13:51.593Z,9.70
2018-12-22T13:16:19.096Z,9.70
2018-12-22T13:21:14.107Z,9.40
2018-12-22T13:23:41.569Z,9.30
2018-12-22T13:26:09.122Z,9.20
2018-12-22T13:28:36.552Z,9.10
2018-12-22T13:31:04.036Z,9.10
2018-12-22T13:33:31.859Z,9.10
2018-12-22T13:35:59.505Z,9.10
2018-12-22T13:38:26.989Z,9.00
2018-12-22T13:43:28.435Z,8.90
2018-12-22T13:45:55.899Z,8.80
2018-12-22T13:48:24.003Z,8.80
2018-12-22T13:53:20.021Z,8.70
2018-12-22T13:58:15.304Z,8.60
2018-12-22T14:00:42.825Z,8.50
2018-12-22T14:03:10.259Z,8.50
2018-12-22T14:05:37.822Z,8.40
2018-12-22T14:08:06.205Z,8.40
2018-12-22T14:10:33.721Z,8.40
2018-12-22T14:13:01.173Z,8.30
2018-12-22T14:18:02.684Z,8.40
2018-12-22T14:22:58.569Z,8.30
2018-12-22T14:25:26.215Z,8.30
2018-12-22T14:27:53.636Z,8.30
2018-12-22T14:30:21.133Z,8.30
2018-12-22T14:32:48.605Z,8.30
2018-12-22T14:35:19.933Z,8.30
2018-12-22T14:37:47.376Z,8.30
2018-12-22T14:40:14.853Z,8.20
2018-12-22T14:42:42.302Z,8.20
2018-12-22T14:45:12.703Z,8.20
2018-12-22T14:50:10.703Z,8.20
2018-12-22T14:55:10.476Z,8.10
2018-12-22T14:57:46.684Z,8.10
2018-12-22T15:00:15.867Z,8.10
2018-12-22T15:02:43.341Z,8.10
2018-12-22T15:07:38.220Z,8.10
2018-12-22T15:10:09.287Z,8.00
2018-12-22T15:12:36.749Z,8.00
2018-12-22T15:17:34.573Z,8.00
2018-12-22T15:20:02.124Z,8.10
2018-12-22T15:22:29.605Z,8.10
2018-12-22T15:24:57.051Z,8.10
2018-12-22T15:27:24.534Z,8.10
2018-12-22T15:32:19.472Z,8.10
2018-12-22T15:34:46.996Z,8.00
2018-12-22T15:39:42.209Z,8.10
2018-12-22T15:42:09.659Z,8.10
2018-12-22T15:44:37.143Z,8.00
2018-12-22T15:51:59.518Z,8.00
2018-12-22T15:56:54.633Z,7.90
2018-12-22T15:59:22.101Z,7.90
2018-12-22T16:01:49.556Z,7.90
2018-12-22T16:06:44.443Z,7.90
2018-12-22T16:09:11.888Z,8.00
2018-12-22T16:11:39.337Z,8.00
2018-12-22T16:14:06.844Z,8.00
2018-12-22T16:19:01.803Z,8.00
2018-12-22T16:23:56.712Z,8.00
2018-12-22T16:26:24.747Z,8.00
2018-12-22T16:28:52.981Z,8.00
2018-12-22T16:31:20.660Z,8.00
2018-12-22T16:36:16.177Z,8.00
2018-12-22T16:51:02.585Z,7.90
2018-12-22T16:53:30.226Z,7.90
2018-12-22T16:55:57.733Z,7.80
2018-12-22T17:01:01.298Z,7.80
2018-12-22T17:03:30.187Z,7.90
2018-12-22T17:05:59.533Z,7.90
2018-12-22T17:20:47.560Z,7.90
2018-12-22T17:28:14.601Z,7.60
2018-12-22T17:30:42.070Z,7.50
2018-12-22T17:35:37.177Z,7.40
2018-12-22T17:38:04.693Z,7.30
2018-12-22T17:40:32.154Z,7.20
2018-12-22T17:42:59.684Z,7.20
2018-12-22T17:45:27.239Z,7.10
2018-12-22T17:50:22.221Z,7.20
2018-12-22T17:52:49.815Z,7.20
2018-12-22T17:57:46.840Z,7.30
2018-12-22T18:00:14.446Z,7.30
2018-12-22T18:02:46.027Z,7.20
2018-12-22T18:05:13.658Z,7.20
2018-12-22T18:07:41.209Z,7.20
2018-12-22T18:10:10.998Z,7.20
2018-12-22T18:15:19.478Z,7.10
2018-12-22T18:22:41.961Z,7.00
2018-12-22T18:25:20.387Z,7.00
2018-12-22T18:27:50.408Z,6.90
2018-12-22T18:30:18.160Z,6.80
2018-12-22T18:32:46.113Z,6.90
2018-12-22T18:35:13.572Z,6.80
2018-12-22T18:37:41.344Z,6.70
2018-12-22T18:40:12.482Z,6.70
2018-12-22T18:42:39.952Z,6.70
2018-12-22T18:45:10.088Z,6.70
2018-12-22T18:47:37.581Z,6.70
2018-12-22T18:50:16.224Z,6.60
2018-12-22T18:52:43.964Z,6.60
2018-12-22T18:55:11.476Z,6.60
2018-12-22T18:57:38.918Z,6.60
2018-12-22T19:00:13.796Z,6.60
2018-12-22T19:05:09.022Z,6.60
2018-12-22T19:07:36.480Z,6.70
2018-12-22T19:12:33.361Z,6.80
2018-12-22T19:15:01.054Z,6.80
2018-12-22T19:27:19.552Z,6.90
2018-12-22T19:29:47.142Z,6.80
2018-12-22T19:32:14.622Z,6.80
2018-12-22T19:34:42.092Z,6.80
2018-12-22T19:42:04.556Z,6.70
2018-12-22T19:46:59.864Z,6.60
2018-12-22T19:51:54.804Z,6.60
2018-12-22T19:56:49.807Z,6.60
2018-12-22T19:59:17.678Z,6.60
2018-12-22T20:01:45.183Z,6.60
2018-12-22T20:04:13.566Z,6.60
2018-12-22T20:06:41.014Z,6.60
2018-12-22T20:09:08.519Z,6.50
2018-12-22T20:11:36.019Z,6.50
2018-12-22T20:14:03.470Z,6.50
2018-12-22T20:26:22.642Z,6.40
2018-12-22T20:28:50.168Z,6.30
2018-12-22T20:31:17.697Z,6.30
2018-12-22T20:33:45.268Z,6.20
2018-12-22T20:38:40.734Z,6.20
2018-12-22T20:43:35.872Z,6.10
2018-12-22T20:46:03.386Z,6.10
2018-12-22T20:50:58.465Z,6.10
2018-12-22T20:53:25.969Z,6.10
2018-12-22T20:58:20.889Z,6.10
2018-12-22T21:00:48.383Z,6.10
2018-12-22T21:03:18.793Z,6.10
2018-12-22T21:05:49.443Z,6.10
2018-12-22T21:08:16.930Z,6.10
2018-12-22T21:10:44.580Z,6.20
2018-12-22T21:13:12.115Z,6.20
2018-12-22T21:15:39.561Z,6.30
2018-12-22T21:18:07.061Z,6.30
2018-12-22T21:23:01.975Z,6.40
2018-12-22T21:27:56.865Z,6.50
2018-12-22T21:35:19.231Z,6.80
2018-12-22T21:37:46.681Z,6.90
2018-12-22T21:40:14.186Z,7.00
2018-12-22T21:42:41.623Z,7.10
2018-12-22T21:45:09.064Z,7.20
2018-12-22T21:50:05.222Z,7.30
2018-12-22T21:55:00.263Z,7.30
2018-12-22T22:02:22.727Z,7.30
2018-12-22T22:04:50.182Z,7.20
2018-12-22T22:09:45.064Z,7.20
2018-12-22T22:12:12.532Z,7.20
2018-12-22T22:14:39.981Z,7.10
2018-12-22T22:17:07.476Z,7.10
2018-12-22T22:22:02.401Z,7.00
2018-12-22T22:24:29.850Z,6.90
2018-12-22T22:29:24.825Z,6.90
2018-12-22T22:31:52.295Z,6.90
2018-12-22T22:36:47.205Z,6.90
2018-12-22T22:39:14.713Z,6.90
2018-12-22T22:41:42.167Z,6.90
2018-12-22T22:44:09.621Z,6.90
2018-12-22T22:46:37.172Z,7.00
2018-12-22T22:51:32.258Z,7.00
2018-12-22T22:53:59.708Z,7.10
2018-12-22T22:58:54.659Z,7.00
2018-12-22T23:01:22.147Z,7.00
2018-12-22T23:03:49.618Z,6.90
2018-12-22T23:08:44.507Z,6.90
2018-12-22T23:11:12.130Z,7.00
2018-12-22T23:13:39.644Z,6.90
2018-12-22T23:16:07.095Z,7.00
2018-12-22T23:21:02.098Z,6.90
2018-12-22T23:25:57.020Z,6.90
2018-12-22T23:28:24.479Z,6.90
2018-12-22T23:30:51.915Z,6.90
2018-12-22T23:33:19.367Z,6.90
2018-12-22T23:38:14.276Z,6.90
2018-12-22T23:40:41.713Z,6.90
2018-12-22T23:43:09.160Z,6.90
2018-12-22T23:48:04.110Z,6.90
2018-12-22T23:50:31.596Z,6.90
2018-12-22T23:55:26.501Z,6.90
